sensor_id;sensor_type;location;lat;lon;timestamp;temperature;humidity
5429;DHT22;2737;52.386;9.980;2023-07-20T00:01:32;15.80;99.90
5429;DHT22;2737;52.386;9.980;2023-07-20T00:03:59;15.80;99.90
5429;DHT22;2737;52.386;9.980;2023-07-20T00:06:27;15.70;99.90
5429;DHT22;2737;52.386;9.980;2023-07-20T00:08:55;15.70;99.90
5429;DHT22;2737;52.386;9.980;2023-07-20T00:11:25;15.60;99.90
5429;DHT22;2737;52.386;9.980;2023-07-20T00:13:53;15.60;99.90
5429;DHT22;2737;52.386;9.980;2023-07-20T00:16:20;15.70;99.90
5429;DHT22;2737;52.386;9.980;2023-07-20T00:18:47;15.60;99.90
5429;DHT22;2737;52.386;9.980;2023-07-20T00:21:14;15.60;99.90
5429;DHT22;2737;52.386;9.980;2023-07-20T00:23:42;15.60;99.90
5429;DHT22;2737;52.386;9.980;2023-07-20T00:26:09;15.60;99.90
5429;DHT22;2737;52.386;9.980;2023-07-20T00:28:36;15.60;99.90
5429;DHT22;2737;52.386;9.980;2023-07-20T00:31:04;15.60;99.90
5429;DHT22;2737;52.386;9.980;2023-07-20T00:33:31;15.50;99.90
5429;DHT22;2737;52.386;9.980;2023-07-20T00:35:58;15.50;99.90
5429;DHT22;2737;52.386;9.980;2023-07-20T00:38:25;15.40;99.90
5429;DHT22;2737;52.386;9.980;2023-07-20T00:40:53;15.30;99.90
5429;DHT22;2737;52.386;9.980;2023-07-20T00:43:20;15.30;99.90
5429;DHT22;2737;52.386;9.980;2023-07-20T00:45:47;15.30;99.90
5429;DHT22;2737;52.386;9.980;2023-07-20T00:48:15;15.30;99.90
5429;DHT22;2737;52.386;9.980;2023-07-20T00:50:42;15.30;99.90
5429;DHT22;2737;52.386;9.980;2023-07-20T00:53:10;15.30;99.90
5429;DHT22;2737;52.386;9.980;2023-07-20T00:55:37;15.30;99.90
5429;DHT22;2737;52.386;9.980;2023-07-20T00:58:05;15.30;99.90
5429;DHT22;2737;52.386;9.980;2023-07-20T01:00:32;15.30;99.90
5429;DHT22;2737;52.386;9.980;2023-07-20T01:02:59;15.20;99.90
5429;DHT22;2737;52.386;9.980;2023-07-20T01:05:36;15.10;99.90
5429;DHT22;2737;52.386;9.980;2023-07-20T01:08:09;15.10;99.90
5429;DHT22;2737;52.386;9.980;2023-07-20T01:10:40;15.10;99.90
5429;DHT22;2737;52.386;9.980;2023-07-20T01:13:10;15.00;99.90
5429;DHT22;2737;52.386;9.980;2023-07-20T01:15:38;14.90;99.90
5429;DHT22;2737;52.386;9.980;2023-07-20T01:18:05;14.90;99.90
5429;DHT22;2737;52.386;9.980;2023-07-20T01:20:33;14.80;99.90
5429;DHT22;2737;52.386;9.980;2023-07-20T01:23:23;14.80;99.90
5429;DHT22;2737;52.386;9.980;2023-07-20T01:26:17;14.90;99.90
5429;DHT22;2737;52.386;9.980;2023-07-20T01:31:41;14.80;99.90
5429;DHT22;2737;52.386;9.980;2023-07-20T01:34:11;14.70;99.90
5429;DHT22;2737;52.386;9.980;2023-07-20T01:36:40;14.70;99.90
5429;DHT22;2737;52.386;9.980;2023-07-20T01:39:09;14.70;99.90
5429;DHT22;2737;52.386;9.980;2023-07-20T01:41:37;14.70;99.90
5429;DHT22;2737;52.386;9.980;2023-07-20T01:44:05;14.70;99.90
5429;DHT22;2737;52.386;9.980;2023-07-20T01:46:32;14.70;99.90
5429;DHT22;2737;52.386;9.980;2023-07-20T01:49:00;14.80;99.90
5429;DHT22;2737;52.386;9.980;2023-07-20T01:51:27;14.70;99.90
5429;DHT22;2737;52.386;9.980;2023-07-20T01:53:54;14.70;99.90
5429;DHT22;2737;52.386;9.980;2023-07-20T01:56:20;14.70;99.90
5429;DHT22;2737;52.386;9.980;2023-07-20T01:58:47;14.80;99.90
5429;DHT22;2737;52.386;9.980;2023-07-20T02:01:14;14.80;99.90
5429;DHT22;2737;52.386;9.980;2023-07-20T02:03:41;14.90;99.90
5429;DHT22;2737;52.386;9.980;2023-07-20T02:06:10;14.90;99.90
5429;DHT22;2737;52.386;9.980;2023-07-20T02:08:37;14.90;99.90
5429;DHT22;2737;52.386;9.980;2023-07-20T02:11:04;14.90;99.90
5429;DHT22;2737;52.386;9.980;2023-07-20T02:13:31;15.00;99.90
5429;DHT22;2737;52.386;9.980;2023-07-20T02:15:58;14.90;99.90
5429;DHT22;2737;52.386;9.980;2023-07-20T02:18:25;14.90;99.90
5429;DHT22;2737;52.386;9.980;2023-07-20T02:20:53;14.90;99.90
5429;DHT22;2737;52.386;9.980;2023-07-20T02:23:21;14.90;99.90
5429;DHT22;2737;52.386;9.980;2023-07-20T02:25:48;14.90;99.90
5429;DHT22;2737;52.386;9.980;2023-07-20T02:28:15;14.80;99.90
5429;DHT22;2737;52.386;9.980;2023-07-20T02:30:42;14.90;99.90
5429;DHT22;2737;52.386;9.980;2023-07-20T02:33:09;14.90;99.90
5429;DHT22;2737;52.386;9.980;2023-07-20T02:35:36;14.80;99.90
5429;DHT22;2737;52.386;9.980;2023-07-20T02:38:03;14.70;99.90
5429;DHT22;2737;52.386;9.980;2023-07-20T02:40:34;14.70;99.90
5429;DHT22;2737;52.386;9.980;2023-07-20T02:43:00;14.80;99.90
5429;DHT22;2737;52.386;9.980;2023-07-20T02:45:28;14.90;99.90
5429;DHT22;2737;52.386;9.980;2023-07-20T02:47:55;14.90;99.90
5429;DHT22;2737;52.386;9.980;2023-07-20T02:50:22;15.00;99.90
5429;DHT22;2737;52.386;9.980;2023-07-20T02:52:49;15.00;99.90
5429;DHT22;2737;52.386;9.980;2023-07-20T02:55:16;14.90;99.90
5429;DHT22;2737;52.386;9.980;2023-07-20T02:57:46;14.90;99.90
5429;DHT22;2737;52.386;9.980;2023-07-20T03:00:14;15.00;99.90
5429;DHT22;2737;52.386;9.980;2023-07-20T03:02:42;15.00;99.90
5429;DHT22;2737;52.386;9.980;2023-07-20T03:05:10;15.00;99.90
5429;DHT22;2737;52.386;9.980;2023-07-20T03:07:37;15.10;99.90
5429;DHT22;2737;52.386;9.980;2023-07-20T03:10:05;15.10;99.90
5429;DHT22;2737;52.386;9.980;2023-07-20T03:12:34;15.10;99.90
5429;DHT22;2737;52.386;9.980;2023-07-20T03:15:03;15.10;99.90
5429;DHT22;2737;52.386;9.980;2023-07-20T03:17:31;15.10;99.90
5429;DHT22;2737;52.386;9.980;2023-07-20T03:19:58;15.10;99.90
5429;DHT22;2737;52.386;9.980;2023-07-20T03:22:25;15.10;99.90
5429;DHT22;2737;52.386;9.980;2023-07-20T03:24:52;15.10;99.90
5429;DHT22;2737;52.386;9.980;2023-07-20T03:27:19;15.10;99.90
5429;DHT22;2737;52.386;9.980;2023-07-20T03:29:46;15.10;99.90
5429;DHT22;2737;52.386;9.980;2023-07-20T03:32:15;15.10;99.90
5429;DHT22;2737;52.386;9.980;2023-07-20T03:34:42;15.10;99.90
5429;DHT22;2737;52.386;9.980;2023-07-20T03:37:09;15.20;99.90
5429;DHT22;2737;52.386;9.980;2023-07-20T03:39:37;15.20;99.90
5429;DHT22;2737;52.386;9.980;2023-07-20T03:42:04;15.20;99.90
5429;DHT22;2737;52.386;9.980;2023-07-20T03:44:32;15.20;99.90
5429;DHT22;2737;52.386;9.980;2023-07-20T03:46:59;15.10;99.90
5429;DHT22;2737;52.386;9.980;2023-07-20T03:49:27;15.20;99.90
5429;DHT22;2737;52.386;9.980;2023-07-20T03:51:54;15.20;99.90
5429;DHT22;2737;52.386;9.980;2023-07-20T03:54:21;15.20;99.90
5429;DHT22;2737;52.386;9.980;2023-07-20T03:56:48;15.20;99.90
5429;DHT22;2737;52.386;9.980;2023-07-20T03:59:15;15.10;99.90
5429;DHT22;2737;52.386;9.980;2023-07-20T04:01:42;15.10;99.90
5429;DHT22;2737;52.386;9.980;2023-07-20T04:04:09;15.10;99.90
5429;DHT22;2737;52.386;9.980;2023-07-20T04:06:38;15.10;99.90
5429;DHT22;2737;52.386;9.980;2023-07-20T04:09:05;15.20;99.90
5429;DHT22;2737;52.386;9.980;2023-07-20T04:11:32;15.20;99.90
5429;DHT22;2737;52.386;9.980;2023-07-20T04:13:59;15.30;99.90
5429;DHT22;2737;52.386;9.980;2023-07-20T04:16:26;15.30;99.90
5429;DHT22;2737;52.386;9.980;2023-07-20T04:18:55;15.30;99.90
5429;DHT22;2737;52.386;9.980;2023-07-20T04:21:23;15.30;99.90
5429;DHT22;2737;52.386;9.980;2023-07-20T04:23:51;15.30;99.90
5429;DHT22;2737;52.386;9.980;2023-07-20T04:26:18;15.30;99.90
5429;DHT22;2737;52.386;9.980;2023-07-20T04:28:45;15.30;99.90
5429;DHT22;2737;52.386;9.980;2023-07-20T04:31:14;15.30;99.90
5429;DHT22;2737;52.386;9.980;2023-07-20T04:33:42;15.30;99.90
5429;DHT22;2737;52.386;9.980;2023-07-20T04:36:09;15.30;99.90
5429;DHT22;2737;52.386;9.980;2023-07-20T04:38:36;15.30;99.90
5429;DHT22;2737;52.386;9.980;2023-07-20T04:41:04;15.30;99.90
5429;DHT22;2737;52.386;9.980;2023-07-20T04:43:31;15.40;99.90
5429;DHT22;2737;52.386;9.980;2023-07-20T04:45:58;15.40;99.90
5429;DHT22;2737;52.386;9.980;2023-07-20T04:48:25;15.30;99.90
5429;DHT22;2737;52.386;9.980;2023-07-20T04:50:52;15.40;99.90
5429;DHT22;2737;52.386;9.980;2023-07-20T04:53:21;15.30;99.90
5429;DHT22;2737;52.386;9.980;2023-07-20T04:55:49;15.30;99.90
5429;DHT22;2737;52.386;9.980;2023-07-20T04:58:22;15.30;99.90
5429;DHT22;2737;52.386;9.980;2023-07-20T05:00:49;15.20;99.90
5429;DHT22;2737;52.386;9.980;2023-07-20T05:03:16;15.20;99.90
5429;DHT22;2737;52.386;9.980;2023-07-20T05:05:44;15.10;99.90
5429;DHT22;2737;52.386;9.980;2023-07-20T05:08:11;15.10;99.90
5429;DHT22;2737;52.386;9.980;2023-07-20T05:10:38;15.10;99.90
5429;DHT22;2737;52.386;9.980;2023-07-20T05:13:05;15.10;99.90
5429;DHT22;2737;52.386;9.980;2023-07-20T05:15:34;14.80;99.90
5429;DHT22;2737;52.386;9.980;2023-07-20T05:18:01;14.70;99.90
5429;DHT22;2737;52.386;9.980;2023-07-20T05:20:28;14.60;99.90
5429;DHT22;2737;52.386;9.980;2023-07-20T05:22:57;14.70;99.90
5429;DHT22;2737;52.386;9.980;2023-07-20T05:25:24;14.60;99.90
5429;DHT22;2737;52.386;9.980;2023-07-20T05:27:52;14.50;99.90
5429;DHT22;2737;52.386;9.980;2023-07-20T05:30:21;14.30;99.90
5429;DHT22;2737;52.386;9.980;2023-07-20T05:32:49;14.30;99.90
5429;DHT22;2737;52.386;9.980;2023-07-20T05:35:19;14.30;99.90
5429;DHT22;2737;52.386;9.980;2023-07-20T05:37:46;14.30;99.90
5429;DHT22;2737;52.386;9.980;2023-07-20T05:40:14;14.20;99.90
5429;DHT22;2737;52.386;9.980;2023-07-20T05:42:44;14.20;99.90
5429;DHT22;2737;52.386;9.980;2023-07-20T05:45:12;14.20;99.90
5429;DHT22;2737;52.386;9.980;2023-07-20T05:47:39;14.20;99.90
5429;DHT22;2737;52.386;9.980;2023-07-20T05:50:09;14.20;99.90
5429;DHT22;2737;52.386;9.980;2023-07-20T05:52:36;14.20;99.90
5429;DHT22;2737;52.386;9.980;2023-07-20T05:55:05;14.20;99.90
5429;DHT22;2737;52.386;9.980;2023-07-20T05:57:32;14.10;99.90
5429;DHT22;2737;52.386;9.980;2023-07-20T05:59:59;14.20;99.90
5429;DHT22;2737;52.386;9.980;2023-07-20T06:02:26;14.20;99.90
5429;DHT22;2737;52.386;9.980;2023-07-20T06:04:54;14.20;99.90
5429;DHT22;2737;52.386;9.980;2023-07-20T06:07:22;14.20;99.90
5429;DHT22;2737;52.386;9.980;2023-07-20T06:09:49;14.20;99.90
5429;DHT22;2737;52.386;9.980;2023-07-20T06:12:16;14.20;99.90
5429;DHT22;2737;52.386;9.980;2023-07-20T06:14:43;14.20;99.90
5429;DHT22;2737;52.386;9.980;2023-07-20T06:17:10;14.30;99.90
5429;DHT22;2737;52.386;9.980;2023-07-20T06:19:37;14.20;99.90
5429;DHT22;2737;52.386;9.980;2023-07-20T06:22:05;14.30;99.90
5429;DHT22;2737;52.386;9.980;2023-07-20T06:24:33;14.30;99.90
5429;DHT22;2737;52.386;9.980;2023-07-20T06:27:00;14.30;99.90
5429;DHT22;2737;52.386;9.980;2023-07-20T06:29:28;14.40;99.90
5429;DHT22;2737;52.386;9.980;2023-07-20T06:31:55;14.60;99.90
5429;DHT22;2737;52.386;9.980;2023-07-20T06:34:22;14.50;99.90
5429;DHT22;2737;52.386;9.980;2023-07-20T06:36:49;14.50;99.90
5429;DHT22;2737;52.386;9.980;2023-07-20T06:39:16;14.70;99.90
5429;DHT22;2737;52.386;9.980;2023-07-20T06:41:44;14.80;99.90
5429;DHT22;2737;52.386;9.980;2023-07-20T06:44:11;14.80;99.90
5429;DHT22;2737;52.386;9.980;2023-07-20T06:46:38;14.90;99.90
5429;DHT22;2737;52.386;9.980;2023-07-20T06:49:06;14.90;99.90
5429;DHT22;2737;52.386;9.980;2023-07-20T06:51:33;15.10;99.90
5429;DHT22;2737;52.386;9.980;2023-07-20T06:54:01;15.10;99.90
5429;DHT22;2737;52.386;9.980;2023-07-20T06:56:30;15.20;99.90
5429;DHT22;2737;52.386;9.980;2023-07-20T06:58:58;15.20;99.90
5429;DHT22;2737;52.386;9.980;2023-07-20T07:01:25;15.20;99.90
5429;DHT22;2737;52.386;9.980;2023-07-20T07:03:52;15.00;99.90
5429;DHT22;2737;52.386;9.980;2023-07-20T07:06:19;14.90;99.90
5429;DHT22;2737;52.386;9.980;2023-07-20T07:08:48;14.90;99.90
5429;DHT22;2737;52.386;9.980;2023-07-20T07:11:15;14.90;99.90
5429;DHT22;2737;52.386;9.980;2023-07-20T07:13:42;14.90;99.90
5429;DHT22;2737;52.386;9.980;2023-07-20T07:16:10;14.90;99.90
5429;DHT22;2737;52.386;9.980;2023-07-20T07:18:37;15.00;99.90
5429;DHT22;2737;52.386;9.980;2023-07-20T07:21:06;15.00;99.90
5429;DHT22;2737;52.386;9.980;2023-07-20T07:23:33;15.40;99.90
5429;DHT22;2737;52.386;9.980;2023-07-20T07:26:00;15.40;99.90
5429;DHT22;2737;52.386;9.980;2023-07-20T07:28:28;15.40;99.90
5429;DHT22;2737;52.386;9.980;2023-07-20T07:30:55;15.70;99.90
5429;DHT22;2737;52.386;9.980;2023-07-20T07:33:24;15.80;99.90
5429;DHT22;2737;52.386;9.980;2023-07-20T07:35:52;16.10;99.90
5429;DHT22;2737;52.386;9.980;2023-07-20T07:38:20;16.30;99.90
5429;DHT22;2737;52.386;9.980;2023-07-20T07:40:47;16.50;99.90
5429;DHT22;2737;52.386;9.980;2023-07-20T07:43:14;16.60;99.90
5429;DHT22;2737;52.386;9.980;2023-07-20T07:45:41;16.30;99.90
5429;DHT22;2737;52.386;9.980;2023-07-20T07:48:08;16.20;99.90
5429;DHT22;2737;52.386;9.980;2023-07-20T07:50:38;16.40;99.90
5429;DHT22;2737;52.386;9.980;2023-07-20T07:53:05;16.80;99.90
5429;DHT22;2737;52.386;9.980;2023-07-20T07:55:33;17.30;99.90
5429;DHT22;2737;52.386;9.980;2023-07-20T07:58:00;17.30;99.90
5429;DHT22;2737;52.386;9.980;2023-07-20T08:00:27;17.20;99.90
5429;DHT22;2737;52.386;9.980;2023-07-20T08:02:54;17.10;99.90
5429;DHT22;2737;52.386;9.980;2023-07-20T08:05:21;17.10;99.90
5429;DHT22;2737;52.386;9.980;2023-07-20T08:07:49;17.50;99.90
5429;DHT22;2737;52.386;9.980;2023-07-20T08:10:16;17.80;99.90
5429;DHT22;2737;52.386;9.980;2023-07-20T08:12:43;18.10;99.90
5429;DHT22;2737;52.386;9.980;2023-07-20T08:15:11;18.40;99.90
5429;DHT22;2737;52.386;9.980;2023-07-20T08:17:40;18.00;99.90
5429;DHT22;2737;52.386;9.980;2023-07-20T08:20:08;18.20;99.90
5429;DHT22;2737;52.386;9.980;2023-07-20T08:22:37;18.30;99.90
5429;DHT22;2737;52.386;9.980;2023-07-20T08:25:07;18.30;99.90
5429;DHT22;2737;52.386;9.980;2023-07-20T08:27:34;18.20;99.90
5429;DHT22;2737;52.386;9.980;2023-07-20T08:30:01;18.30;99.90
5429;DHT22;2737;52.386;9.980;2023-07-20T08:32:30;18.60;99.90
5429;DHT22;2737;52.386;9.980;2023-07-20T08:34:57;18.80;99.90
5429;DHT22;2737;52.386;9.980;2023-07-20T08:37:24;19.10;99.90
5429;DHT22;2737;52.386;9.980;2023-07-20T08:39:51;19.00;99.90
5429;DHT22;2737;52.386;9.980;2023-07-20T08:42:19;18.70;99.90
5429;DHT22;2737;52.386;9.980;2023-07-20T08:44:48;18.30;99.90
5429;DHT22;2737;52.386;9.980;2023-07-20T08:47:16;18.00;99.90
5429;DHT22;2737;52.386;9.980;2023-07-20T08:49:46;18.00;99.90
5429;DHT22;2737;52.386;9.980;2023-07-20T08:52:15;18.40;99.90
5429;DHT22;2737;52.386;9.980;2023-07-20T08:54:42;18.60;99.90
5429;DHT22;2737;52.386;9.980;2023-07-20T08:57:12;19.00;99.90
5429;DHT22;2737;52.386;9.980;2023-07-20T08:59:43;18.90;99.90
5429;DHT22;2737;52.386;9.980;2023-07-20T09:02:15;19.40;99.90
5429;DHT22;2737;52.386;9.980;2023-07-20T09:04:44;19.50;99.90
5429;DHT22;2737;52.386;9.980;2023-07-20T09:07:11;19.30;99.90
5429;DHT22;2737;52.386;9.980;2023-07-20T09:09:40;19.30;99.90
5429;DHT22;2737;52.386;9.980;2023-07-20T09:12:13;19.50;99.90
5429;DHT22;2737;52.386;9.980;2023-07-20T09:14:44;19.60;99.90
5429;DHT22;2737;52.386;9.980;2023-07-20T09:17:13;19.80;99.90
5429;DHT22;2737;52.386;9.980;2023-07-20T09:19:46;19.70;99.90
5429;DHT22;2737;52.386;9.980;2023-07-20T09:22:13;19.80;99.90
5429;DHT22;2737;52.386;9.980;2023-07-20T09:24:40;19.80;99.90
5429;DHT22;2737;52.386;9.980;2023-07-20T09:27:08;19.50;99.90
5429;DHT22;2737;52.386;9.980;2023-07-20T09:29:49;19.40;99.90
5429;DHT22;2737;52.386;9.980;2023-07-20T09:32:18;19.30;99.90
5429;DHT22;2737;52.386;9.980;2023-07-20T09:34:46;19.40;99.90
5429;DHT22;2737;52.386;9.980;2023-07-20T09:37:13;19.30;99.90
5429;DHT22;2737;52.386;9.980;2023-07-20T09:39:44;19.10;99.90
5429;DHT22;2737;52.386;9.980;2023-07-20T09:42:12;19.10;99.90
5429;DHT22;2737;52.386;9.980;2023-07-20T09:44:39;19.00;99.90
5429;DHT22;2737;52.386;9.980;2023-07-20T09:47:08;18.90;99.90
5429;DHT22;2737;52.386;9.980;2023-07-20T09:49:39;19.40;99.90
5429;DHT22;2737;52.386;9.980;2023-07-20T09:52:08;19.80;99.90
5429;DHT22;2737;52.386;9.980;2023-07-20T09:54:37;20.20;99.90
5429;DHT22;2737;52.386;9.980;2023-07-20T09:57:07;20.50;99.90
5429;DHT22;2737;52.386;9.980;2023-07-20T09:59:35;20.70;99.90
5429;DHT22;2737;52.386;9.980;2023-07-20T10:02:04;20.60;99.90
5429;DHT22;2737;52.386;9.980;2023-07-20T10:04:36;20.70;99.90
5429;DHT22;2737;52.386;9.980;2023-07-20T10:07:06;20.30;99.90
5429;DHT22;2737;52.386;9.980;2023-07-20T10:09:39;19.90;99.90
5429;DHT22;2737;52.386;9.980;2023-07-20T10:12:08;20.20;99.90
5429;DHT22;2737;52.386;9.980;2023-07-20T10:14:40;20.70;99.90
5429;DHT22;2737;52.386;9.980;2023-07-20T10:17:12;20.60;99.90
5429;DHT22;2737;52.386;9.980;2023-07-20T10:19:44;20.70;99.90
5429;DHT22;2737;52.386;9.980;2023-07-20T10:22:16;20.50;99.90
5429;DHT22;2737;52.386;9.980;2023-07-20T10:24:46;20.60;99.90
5429;DHT22;2737;52.386;9.980;2023-07-20T10:27:13;20.30;99.90
5429;DHT22;2737;52.386;9.980;2023-07-20T10:29:41;20.20;99.90
5429;DHT22;2737;52.386;9.980;2023-07-20T10:32:09;20.00;99.90
5429;DHT22;2737;52.386;9.980;2023-07-20T10:34:36;20.30;99.90
5429;DHT22;2737;52.386;9.980;2023-07-20T10:37:05;20.30;99.90
5429;DHT22;2737;52.386;9.980;2023-07-20T10:39:32;19.90;99.90
5429;DHT22;2737;52.386;9.980;2023-07-20T10:42:01;19.80;99.90
5429;DHT22;2737;52.386;9.980;2023-07-20T10:44:29;20.00;99.90
5429;DHT22;2737;52.386;9.980;2023-07-20T10:47:00;20.40;99.90
5429;DHT22;2737;52.386;9.980;2023-07-20T10:49:28;20.60;99.90
5429;DHT22;2737;52.386;9.980;2023-07-20T10:51:59;20.40;99.90
5429;DHT22;2737;52.386;9.980;2023-07-20T10:54:47;20.70;99.90
5429;DHT22;2737;52.386;9.980;2023-07-20T10:57:30;20.70;99.90
5429;DHT22;2737;52.386;9.980;2023-07-20T11:00:08;21.00;99.90
5429;DHT22;2737;52.386;9.980;2023-07-20T11:02:47;20.80;99.90
5429;DHT22;2737;52.386;9.980;2023-07-20T11:05:35;20.90;99.90
5429;DHT22;2737;52.386;9.980;2023-07-20T11:08:09;21.50;99.90
5429;DHT22;2737;52.386;9.980;2023-07-20T11:10:38;21.70;99.90
5429;DHT22;2737;52.386;9.980;2023-07-20T11:13:19;21.90;99.90
5429;DHT22;2737;52.386;9.980;2023-07-20T11:15:47;22.00;99.90
5429;DHT22;2737;52.386;9.980;2023-07-20T11:18:14;21.90;99.90
5429;DHT22;2737;52.386;9.980;2023-07-20T11:20:42;22.00;99.90
5429;DHT22;2737;52.386;9.980;2023-07-20T11:23:09;22.10;99.90
5429;DHT22;2737;52.386;9.980;2023-07-20T11:25:39;22.10;99.90
5429;DHT22;2737;52.386;9.980;2023-07-20T11:28:09;22.00;99.90
5429;DHT22;2737;52.386;9.980;2023-07-20T11:30:37;22.00;99.90
5429;DHT22;2737;52.386;9.980;2023-07-20T11:33:05;22.10;99.90
5429;DHT22;2737;52.386;9.980;2023-07-20T11:35:35;21.80;99.20
5429;DHT22;2737;52.386;9.980;2023-07-20T11:38:02;22.00;99.90
5429;DHT22;2737;52.386;9.980;2023-07-20T11:40:30;22.10;99.90
5429;DHT22;2737;52.386;9.980;2023-07-20T11:42:58;21.80;99.90
5429;DHT22;2737;52.386;9.980;2023-07-20T11:45:25;21.40;99.80
5429;DHT22;2737;52.386;9.980;2023-07-20T11:47:53;21.10;99.90
5429;DHT22;2737;52.386;9.980;2023-07-20T11:50:20;20.90;99.80
5429;DHT22;2737;52.386;9.980;2023-07-20T11:52:47;20.70;99.90
5429;DHT22;2737;52.386;9.980;2023-07-20T11:55:15;20.30;99.90
5429;DHT22;2737;52.386;9.980;2023-07-20T11:58:02;20.30;99.90
5429;DHT22;2737;52.386;9.980;2023-07-20T12:00:29;20.30;99.90
5429;DHT22;2737;52.386;9.980;2023-07-20T12:02:56;20.30;99.90
5429;DHT22;2737;52.386;9.980;2023-07-20T12:05:23;20.30;99.90
5429;DHT22;2737;52.386;9.980;2023-07-20T12:07:52;20.20;99.90
5429;DHT22;2737;52.386;9.980;2023-07-20T12:10:24;20.40;99.90
5429;DHT22;2737;52.386;9.980;2023-07-20T12:12:52;20.80;99.90
5429;DHT22;2737;52.386;9.980;2023-07-20T12:15:22;21.10;99.90
5429;DHT22;2737;52.386;9.980;2023-07-20T12:17:50;21.10;99.90
5429;DHT22;2737;52.386;9.980;2023-07-20T12:20:28;20.90;99.90
5429;DHT22;2737;52.386;9.980;2023-07-20T12:22:57;21.00;99.90
5429;DHT22;2737;52.386;9.980;2023-07-20T12:25:33;20.90;99.90
5429;DHT22;2737;52.386;9.980;2023-07-20T12:28:01;20.90;99.90
5429;DHT22;2737;52.386;9.980;2023-07-20T12:30:30;21.00;99.90
5429;DHT22;2737;52.386;9.980;2023-07-20T12:32:57;21.20;99.90
5429;DHT22;2737;52.386;9.980;2023-07-20T12:35:25;21.40;99.90
5429;DHT22;2737;52.386;9.980;2023-07-20T12:37:52;21.30;99.90
5429;DHT22;2737;52.386;9.980;2023-07-20T12:40:19;21.10;99.90
5429;DHT22;2737;52.386;9.980;2023-07-20T12:42:46;20.90;99.90
5429;DHT22;2737;52.386;9.980;2023-07-20T12:45:13;20.70;99.90
5429;DHT22;2737;52.386;9.980;2023-07-20T12:47:42;20.70;99.90
5429;DHT22;2737;52.386;9.980;2023-07-20T12:50:09;20.70;99.90
5429;DHT22;2737;52.386;9.980;2023-07-20T12:52:37;20.70;99.90
5429;DHT22;2737;52.386;9.980;2023-07-20T12:55:06;20.70;99.90
5429;DHT22;2737;52.386;9.980;2023-07-20T12:57:33;20.70;99.90
5429;DHT22;2737;52.386;9.980;2023-07-20T13:00:00;20.80;99.90
5429;DHT22;2737;52.386;9.980;2023-07-20T13:02:29;20.90;99.90
5429;DHT22;2737;52.386;9.980;2023-07-20T13:04:58;21.20;99.90
5429;DHT22;2737;52.386;9.980;2023-07-20T13:07:32;21.20;99.90
5429;DHT22;2737;52.386;9.980;2023-07-20T13:10:00;21.30;99.90
5429;DHT22;2737;52.386;9.980;2023-07-20T13:12:28;21.40;99.90
5429;DHT22;2737;52.386;9.980;2023-07-20T13:14:56;21.40;99.90
5429;DHT22;2737;52.386;9.980;2023-07-20T13:17:26;21.20;99.90
5429;DHT22;2737;52.386;9.980;2023-07-20T13:19:53;21.10;99.90
5429;DHT22;2737;52.386;9.980;2023-07-20T13:22:21;21.10;99.90
5429;DHT22;2737;52.386;9.980;2023-07-20T13:24:48;20.90;99.90
5429;DHT22;2737;52.386;9.980;2023-07-20T13:27:15;20.80;99.90
5429;DHT22;2737;52.386;9.980;2023-07-20T13:29:43;20.80;99.90
5429;DHT22;2737;52.386;9.980;2023-07-20T13:32:12;21.00;99.90
5429;DHT22;2737;52.386;9.980;2023-07-20T13:34:39;21.30;98.90
5429;DHT22;2737;52.386;9.980;2023-07-20T13:37:06;21.20;98.90
5429;DHT22;2737;52.386;9.980;2023-07-20T13:39:35;21.20;98.30
5429;DHT22;2737;52.386;9.980;2023-07-20T13:42:02;21.20;98.60
5429;DHT22;2737;52.386;9.980;2023-07-20T13:44:31;21.20;98.40
5429;DHT22;2737;52.386;9.980;2023-07-20T13:46:58;21.00;98.90
5429;DHT22;2737;52.386;9.980;2023-07-20T13:49:25;21.10;99.50
5429;DHT22;2737;52.386;9.980;2023-07-20T13:51:52;21.10;99.90
5429;DHT22;2737;52.386;9.980;2023-07-20T13:54:19;20.80;99.90
5429;DHT22;2737;52.386;9.980;2023-07-20T13:56:48;20.70;99.90
5429;DHT22;2737;52.386;9.980;2023-07-20T13:59:15;20.80;99.90
5429;DHT22;2737;52.386;9.980;2023-07-20T14:01:42;20.90;99.90
5429;DHT22;2737;52.386;9.980;2023-07-20T14:04:09;21.00;99.90
5429;DHT22;2737;52.386;9.980;2023-07-20T14:06:36;21.30;99.90
5429;DHT22;2737;52.386;9.980;2023-07-20T14:09:03;21.30;99.90
5429;DHT22;2737;52.386;9.980;2023-07-20T14:11:30;21.20;99.90
5429;DHT22;2737;52.386;9.980;2023-07-20T14:13:58;21.30;99.90
5429;DHT22;2737;52.386;9.980;2023-07-20T14:16:26;21.20;99.90
5429;DHT22;2737;52.386;9.980;2023-07-20T14:18:53;21.20;99.90
5429;DHT22;2737;52.386;9.980;2023-07-20T14:21:20;21.20;99.90
5429;DHT22;2737;52.386;9.980;2023-07-20T14:23:49;21.50;99.90
5429;DHT22;2737;52.386;9.980;2023-07-20T14:26:16;21.30;99.90
5429;DHT22;2737;52.386;9.980;2023-07-20T14:28:43;21.50;99.90
5429;DHT22;2737;52.386;9.980;2023-07-20T14:31:11;21.50;99.90
5429;DHT22;2737;52.386;9.980;2023-07-20T14:33:39;21.50;99.90
5429;DHT22;2737;52.386;9.980;2023-07-20T14:36:06;21.40;99.90
5429;DHT22;2737;52.386;9.980;2023-07-20T14:38:34;21.40;99.90
5429;DHT22;2737;52.386;9.980;2023-07-20T14:41:01;21.10;99.90
5429;DHT22;2737;52.386;9.980;2023-07-20T14:43:28;21.00;99.90
5429;DHT22;2737;52.386;9.980;2023-07-20T14:45:55;21.00;99.90
5429;DHT22;2737;52.386;9.980;2023-07-20T14:48:24;21.10;99.90
5429;DHT22;2737;52.386;9.980;2023-07-20T14:50:51;21.20;99.90
5429;DHT22;2737;52.386;9.980;2023-07-20T14:53:18;21.30;99.90
5429;DHT22;2737;52.386;9.980;2023-07-20T14:55:45;21.70;99.80
5429;DHT22;2737;52.386;9.980;2023-07-20T14:58:12;21.60;99.20
5429;DHT22;2737;52.386;9.980;2023-07-20T15:00:39;21.60;99.20
5429;DHT22;2737;52.386;9.980;2023-07-20T15:03:06;21.40;99.50
5429;DHT22;2737;52.386;9.980;2023-07-20T15:05:36;21.30;99.80
5429;DHT22;2737;52.386;9.980;2023-07-20T15:08:04;21.20;99.90
5429;DHT22;2737;52.386;9.980;2023-07-20T15:10:32;21.30;99.90
5429;DHT22;2737;52.386;9.980;2023-07-20T15:12:59;21.60;99.90
5429;DHT22;2737;52.386;9.980;2023-07-20T15:15:26;21.80;99.40
5429;DHT22;2737;52.386;9.980;2023-07-20T15:17:53;21.80;98.70
5429;DHT22;2737;52.386;9.980;2023-07-20T15:20:20;21.60;99.00
5429;DHT22;2737;52.386;9.980;2023-07-20T15:22:49;21.20;99.50
5429;DHT22;2737;52.386;9.980;2023-07-20T15:25:16;21.20;99.60
5429;DHT22;2737;52.386;9.980;2023-07-20T15:27:43;21.20;99.70
5429;DHT22;2737;52.386;9.980;2023-07-20T15:30:11;21.60;99.40
5429;DHT22;2737;52.386;9.980;2023-07-20T15:32:39;21.60;99.10
5429;DHT22;2737;52.386;9.980;2023-07-20T15:35:09;21.20;98.80
5429;DHT22;2737;52.386;9.980;2023-07-20T15:37:36;21.30;99.30
5429;DHT22;2737;52.386;9.980;2023-07-20T15:40:06;21.30;98.80
5429;DHT22;2737;52.386;9.980;2023-07-20T15:42:34;21.30;98.80
5429;DHT22;2737;52.386;9.980;2023-07-20T15:45:01;21.20;99.10
5429;DHT22;2737;52.386;9.980;2023-07-20T15:47:28;21.50;99.70
5429;DHT22;2737;52.386;9.980;2023-07-20T15:49:55;21.50;99.30
5429;DHT22;2737;52.386;9.980;2023-07-20T15:52:22;21.60;98.70
5429;DHT22;2737;52.386;9.980;2023-07-20T15:54:49;21.50;98.50
5429;DHT22;2737;52.386;9.980;2023-07-20T15:57:18;21.60;98.40
5429;DHT22;2737;52.386;9.980;2023-07-20T15:59:45;21.50;97.80
5429;DHT22;2737;52.386;9.980;2023-07-20T16:02:12;21.30;97.90
5429;DHT22;2737;52.386;9.980;2023-07-20T16:04:40;21.20;98.20
5429;DHT22;2737;52.386;9.980;2023-07-20T16:07:10;21.20;98.80
5429;DHT22;2737;52.386;9.980;2023-07-20T16:09:38;21.20;98.50
5429;DHT22;2737;52.386;9.980;2023-07-20T16:12:06;21.10;98.30